sensor_id;sensor_type;location;lat;lon;timestamp;temperature;humidity
1786;DHT22;890;48.158;11.540;2023-09-07T00:01:45;19.50;78.40
1786;DHT22;890;48.158;11.540;2023-09-07T00:04:11;19.50;78.70
1786;DHT22;890;48.158;11.540;2023-09-07T00:06:38;19.50;78.90
1786;DHT22;890;48.158;11.540;2023-09-07T00:09:03;19.40;79.10
1786;DHT22;890;48.158;11.540;2023-09-07T00:11:31;19.40;79.20
1786;DHT22;890;48.158;11.540;2023-09-07T00:13:56;19.30;79.40
1786;DHT22;890;48.158;11.540;2023-09-07T00:16:24;19.30;79.60
1786;DHT22;890;48.158;11.540;2023-09-07T00:18:50;19.20;79.90
1786;DHT22;890;48.158;11.540;2023-09-07T00:21:16;19.20;80.10
1786;DHT22;890;48.158;11.540;2023-09-07T00:23:41;19.20;80.30
1786;DHT22;890;48.158;11.540;2023-09-07T00:26:07;19.10;80.40
1786;DHT22;890;48.158;11.540;2023-09-07T00:28:33;19.10;80.50
1786;DHT22;890;48.158;11.540;2023-09-07T00:30:59;19.30;80.90
1786;DHT22;890;48.158;11.540;2023-09-07T00:33:24;19.10;80.80
1786;DHT22;890;48.158;11.540;2023-09-07T00:35:50;19.10;81.00
1786;DHT22;890;48.158;11.540;2023-09-07T00:38:15;19.10;81.20
1786;DHT22;890;48.158;11.540;2023-09-07T00:40:44;19.10;81.30
1786;DHT22;890;48.158;11.540;2023-09-07T00:43:13;19.00;81.40
1786;DHT22;890;48.158;11.540;2023-09-07T00:45:39;19.00;81.40
1786;DHT22;890;48.158;11.540;2023-09-07T00:48:05;19.00;81.50
1786;DHT22;890;48.158;11.540;2023-09-07T00:50:31;19.00;81.70
1786;DHT22;890;48.158;11.540;2023-09-07T00:52:58;19.00;81.80
1786;DHT22;890;48.158;11.540;2023-09-07T00:55:25;19.00;81.90
1786;DHT22;890;48.158;11.540;2023-09-07T00:57:50;19.10;82.20
1786;DHT22;890;48.158;11.540;2023-09-07T01:00:16;18.90;82.00
1786;DHT22;890;48.158;11.540;2023-09-07T01:02:42;19.00;82.20
1786;DHT22;890;48.158;11.540;2023-09-07T01:05:10;18.90;82.20
1786;DHT22;890;48.158;11.540;2023-09-07T01:07:50;18.90;82.40
1786;DHT22;890;48.158;11.540;2023-09-07T01:10:18;18.80;82.50
1786;DHT22;890;48.158;11.540;2023-09-07T01:12:44;18.90;82.60
1786;DHT22;890;48.158;11.540;2023-09-07T01:15:10;18.90;82.70
1786;DHT22;890;48.158;11.540;2023-09-07T01:17:36;18.80;82.80
1786;DHT22;890;48.158;11.540;2023-09-07T01:20:05;18.80;83.00
1786;DHT22;890;48.158;11.540;2023-09-07T01:22:35;18.70;83.10
1786;DHT22;890;48.158;11.540;2023-09-07T01:25:02;18.70;83.10
1786;DHT22;890;48.158;11.540;2023-09-07T01:27:28;18.70;83.50
1786;DHT22;890;48.158;11.540;2023-09-07T01:29:53;18.60;83.60
1786;DHT22;890;48.158;11.540;2023-09-07T01:32:20;18.60;83.70
1786;DHT22;890;48.158;11.540;2023-09-07T01:34:45;18.60;83.90
1786;DHT22;890;48.158;11.540;2023-09-07T01:37:11;18.50;83.50
1786;DHT22;890;48.158;11.540;2023-09-07T01:39:36;18.50;83.90
1786;DHT22;890;48.158;11.540;2023-09-07T01:42:02;18.50;84.10
1786;DHT22;890;48.158;11.540;2023-09-07T01:44:28;18.40;84.20
1786;DHT22;890;48.158;11.540;2023-09-07T01:46:55;18.50;84.40
1786;DHT22;890;48.158;11.540;2023-09-07T01:49:20;18.50;84.50
1786;DHT22;890;48.158;11.540;2023-09-07T01:51:46;18.50;84.50
1786;DHT22;890;48.158;11.540;2023-09-07T01:54:11;18.50;84.80
1786;DHT22;890;48.158;11.540;2023-09-07T01:56:37;18.40;84.80
1786;DHT22;890;48.158;11.540;2023-09-07T01:59:02;18.50;84.80
1786;DHT22;890;48.158;11.540;2023-09-07T02:01:30;18.40;84.90
1786;DHT22;890;48.158;11.540;2023-09-07T02:03:56;18.40;85.10
1786;DHT22;890;48.158;11.540;2023-09-07T02:06:22;18.30;84.60
1786;DHT22;890;48.158;11.540;2023-09-07T02:08:48;18.30;84.80
1786;DHT22;890;48.158;11.540;2023-09-07T02:11:14;18.30;84.90
1786;DHT22;890;48.158;11.540;2023-09-07T02:13:43;18.50;85.30
1786;DHT22;890;48.158;11.540;2023-09-07T02:16:09;18.30;84.90
1786;DHT22;890;48.158;11.540;2023-09-07T02:18:36;18.40;85.30
1786;DHT22;890;48.158;11.540;2023-09-07T02:21:03;18.30;85.10
1786;DHT22;890;48.158;11.540;2023-09-07T02:23:32;18.20;84.70
1786;DHT22;890;48.158;11.540;2023-09-07T02:25:58;18.20;85.40
1786;DHT22;890;48.158;11.540;2023-09-07T02:28:24;18.20;85.70
1786;DHT22;890;48.158;11.540;2023-09-07T02:30:53;18.20;85.90
1786;DHT22;890;48.158;11.540;2023-09-07T02:33:19;18.10;85.90
1786;DHT22;890;48.158;11.540;2023-09-07T02:35:44;18.10;86.00
1786;DHT22;890;48.158;11.540;2023-09-07T02:38:10;18.20;86.30
1786;DHT22;890;48.158;11.540;2023-09-07T02:40:43;18.10;86.30
1786;DHT22;890;48.158;11.540;2023-09-07T02:43:10;18.10;86.50
1786;DHT22;890;48.158;11.540;2023-09-07T02:45:36;18.20;86.70
1786;DHT22;890;48.158;11.540;2023-09-07T02:48:02;18.10;86.80
1786;DHT22;890;48.158;11.540;2023-09-07T02:50:31;18.10;87.00
1786;DHT22;890;48.158;11.540;2023-09-07T02:52:57;18.10;87.00
1786;DHT22;890;48.158;11.540;2023-09-07T02:55:23;18.10;87.00
1786;DHT22;890;48.158;11.540;2023-09-07T02:57:48;18.10;87.00
1786;DHT22;890;48.158;11.540;2023-09-07T03:00:14;18.10;87.10
1786;DHT22;890;48.158;11.540;2023-09-07T03:02:43;18.10;87.20
1786;DHT22;890;48.158;11.540;2023-09-07T03:05:09;18.10;87.20
1786;DHT22;890;48.158;11.540;2023-09-07T03:07:34;18.10;87.20
1786;DHT22;890;48.158;11.540;2023-09-07T03:10:00;18.10;87.30
1786;DHT22;890;48.158;11.540;2023-09-07T03:12:26;18.00;87.30
1786;DHT22;890;48.158;11.540;2023-09-07T03:14:52;18.00;87.50
1786;DHT22;890;48.158;11.540;2023-09-07T03:17:18;18.00;87.70
1786;DHT22;890;48.158;11.540;2023-09-07T03:19:46;18.00;87.60
1786;DHT22;890;48.158;11.540;2023-09-07T03:22:12;17.90;87.70
1786;DHT22;890;48.158;11.540;2023-09-07T03:24:38;17.90;87.90
1786;DHT22;890;48.158;11.540;2023-09-07T03:27:03;17.90;88.10
1786;DHT22;890;48.158;11.540;2023-09-07T03:29:30;17.90;88.20
1786;DHT22;890;48.158;11.540;2023-09-07T03:32:01;17.80;88.30
1786;DHT22;890;48.158;11.540;2023-09-07T03:34:27;17.80;88.40
1786;DHT22;890;48.158;11.540;2023-09-07T03:36:53;17.80;88.40
1786;DHT22;890;48.158;11.540;2023-09-07T03:39:19;17.80;88.50
1786;DHT22;890;48.158;11.540;2023-09-07T03:41:46;17.80;88.50
1786;DHT22;890;48.158;11.540;2023-09-07T03:44:12;17.70;88.50
1786;DHT22;890;48.158;11.540;2023-09-07T03:46:38;17.70;88.70
1786;DHT22;890;48.158;11.540;2023-09-07T03:49:03;17.60;88.80
1786;DHT22;890;48.158;11.540;2023-09-07T03:51:29;17.60;89.00
1786;DHT22;890;48.158;11.540;2023-09-07T03:53:54;17.60;89.20
1786;DHT22;890;48.158;11.540;2023-09-07T03:56:20;17.50;89.30
1786;DHT22;890;48.158;11.540;2023-09-07T03:58:45;17.50;89.40
1786;DHT22;890;48.158;11.540;2023-09-07T04:01:13;17.50;89.50
1786;DHT22;890;48.158;11.540;2023-09-07T04:03:39;17.50;89.80
1786;DHT22;890;48.158;11.540;2023-09-07T04:06:05;17.40;89.70
1786;DHT22;890;48.158;11.540;2023-09-07T04:08:31;17.30;89.60
1786;DHT22;890;48.158;11.540;2023-09-07T04:10:57;17.30;89.80
1786;DHT22;890;48.158;11.540;2023-09-07T04:13:22;17.30;89.80
1786;DHT22;890;48.158;11.540;2023-09-07T04:15:48;17.20;89.70
1786;DHT22;890;48.158;11.540;2023-09-07T04:18:14;17.20;90.10
1786;DHT22;890;48.158;11.540;2023-09-07T04:20:43;17.20;90.20
1786;DHT22;890;48.158;11.540;2023-09-07T04:23:09;17.10;90.20
1786;DHT22;890;48.158;11.540;2023-09-07T04:25:36;17.10;90.30
1786;DHT22;890;48.158;11.540;2023-09-07T04:28:02;17.10;90.50
1786;DHT22;890;48.158;11.540;2023-09-07T04:30:27;17.00;90.60
1786;DHT22;890;48.158;11.540;2023-09-07T04:32:53;17.00;90.60
1786;DHT22;890;48.158;11.540;2023-09-07T04:35:18;17.00;90.70
1786;DHT22;890;48.158;11.540;2023-09-07T04:37:45;16.90;90.70
1786;DHT22;890;48.158;11.540;2023-09-07T04:40:11;16.90;90.80
1786;DHT22;890;48.158;11.540;2023-09-07T04:42:38;16.90;90.90
1786;DHT22;890;48.158;11.540;2023-09-07T04:45:05;16.90;90.90
1786;DHT22;890;48.158;11.540;2023-09-07T04:47:30;16.90;91.00
1786;DHT22;890;48.158;11.540;2023-09-07T04:49:56;16.90;91.00
1786;DHT22;890;48.158;11.540;2023-09-07T04:52:22;16.90;91.10
1786;DHT22;890;48.158;11.540;2023-09-07T04:54:48;16.90;91.10
1786;DHT22;890;48.158;11.540;2023-09-07T04:57:16;16.90;91.10
1786;DHT22;890;48.158;11.540;2023-09-07T04:59:42;17.00;91.10
1786;DHT22;890;48.158;11.540;2023-09-07T05:02:08;16.90;91.00
1786;DHT22;890;48.158;11.540;2023-09-07T05:04:34;17.00;91.10
1786;DHT22;890;48.158;11.540;2023-09-07T05:06:59;17.10;91.00
1786;DHT22;890;48.158;11.540;2023-09-07T05:09:25;17.10;90.90
1786;DHT22;890;48.158;11.540;2023-09-07T05:11:51;17.20;90.90
1786;DHT22;890;48.158;11.540;2023-09-07T05:14:17;17.20;90.90
1786;DHT22;890;48.158;11.540;2023-09-07T05:16:43;17.20;90.90
1786;DHT22;890;48.158;11.540;2023-09-07T05:19:09;17.30;91.00
1786;DHT22;890;48.158;11.540;2023-09-07T05:21:35;17.30;91.00
1786;DHT22;890;48.158;11.540;2023-09-07T05:24:00;17.30;91.00
1786;DHT22;890;48.158;11.540;2023-09-07T05:26:26;17.40;91.10
1786;DHT22;890;48.158;11.540;2023-09-07T05:28:51;17.50;91.10
1786;DHT22;890;48.158;11.540;2023-09-07T05:31:17;17.50;91.00
1786;DHT22;890;48.158;11.540;2023-09-07T05:33:43;17.50;91.00
1786;DHT22;890;48.158;11.540;2023-09-07T05:36:08;17.60;91.00
1786;DHT22;890;48.158;11.540;2023-09-07T05:38:34;17.60;90.90
1786;DHT22;890;48.158;11.540;2023-09-07T05:41:00;17.70;91.20
1786;DHT22;890;48.158;11.540;2023-09-07T05:43:25;17.80;90.90
1786;DHT22;890;48.158;11.540;2023-09-07T05:45:51;17.90;90.90
1786;DHT22;890;48.158;11.540;2023-09-07T05:48:16;17.90;90.70
1786;DHT22;890;48.158;11.540;2023-09-07T05:50:42;18.00;90.80
1786;DHT22;890;48.158;11.540;2023-09-07T05:53:08;18.10;91.00
1786;DHT22;890;48.158;11.540;2023-09-07T05:55:34;18.30;90.60
1786;DHT22;890;48.158;11.540;2023-09-07T05:58:03;18.40;90.40
1786;DHT22;890;48.158;11.540;2023-09-07T06:00:29;18.30;90.20
1786;DHT22;890;48.158;11.540;2023-09-07T06:02:54;18.50;90.30
1786;DHT22;890;48.158;11.540;2023-09-07T06:05:20;18.50;90.20
1786;DHT22;890;48.158;11.540;2023-09-07T06:07:46;18.60;90.10
1786;DHT22;890;48.158;11.540;2023-09-07T06:10:12;18.70;90.00
1786;DHT22;890;48.158;11.540;2023-09-07T06:12:37;18.80;90.00
1786;DHT22;890;48.158;11.540;2023-09-07T06:15:03;19.00;89.80
1786;DHT22;890;48.158;11.540;2023-09-07T06:17:29;19.10;89.40
1786;DHT22;890;48.158;11.540;2023-09-07T06:19:55;19.20;89.00
1786;DHT22;890;48.158;11.540;2023-09-07T06:22:21;19.30;88.60
1786;DHT22;890;48.158;11.540;2023-09-07T06:24:47;19.30;88.10
1786;DHT22;890;48.158;11.540;2023-09-07T06:27:12;19.40;88.00
1786;DHT22;890;48.158;11.540;2023-09-07T06:29:38;19.40;87.80
1786;DHT22;890;48.158;11.540;2023-09-07T06:32:04;19.40;87.80
1786;DHT22;890;48.158;11.540;2023-09-07T06:34:29;19.50;87.30
1786;DHT22;890;48.158;11.540;2023-09-07T06:36:55;19.60;87.10
1786;DHT22;890;48.158;11.540;2023-09-07T06:39:20;19.70;86.90
1786;DHT22;890;48.158;11.540;2023-09-07T06:41:46;19.80;86.30
1786;DHT22;890;48.158;11.540;2023-09-07T06:44:12;19.80;85.70
1786;DHT22;890;48.158;11.540;2023-09-07T06:46:38;19.70;85.30
1786;DHT22;890;48.158;11.540;2023-09-07T06:49:04;19.80;85.70
1786;DHT22;890;48.158;11.540;2023-09-07T06:51:31;19.90;85.60
1786;DHT22;890;48.158;11.540;2023-09-07T06:53:56;19.90;85.00
1786;DHT22;890;48.158;11.540;2023-09-07T06:56:22;19.90;84.70
1786;DHT22;890;48.158;11.540;2023-09-07T06:58:48;20.00;84.70
1786;DHT22;890;48.158;11.540;2023-09-07T07:01:14;20.10;84.70
1786;DHT22;890;48.158;11.540;2023-09-07T07:03:41;20.30;84.50
1786;DHT22;890;48.158;11.540;2023-09-07T07:06:06;20.30;83.80
1786;DHT22;890;48.158;11.540;2023-09-07T07:08:32;20.40;84.50
1786;DHT22;890;48.158;11.540;2023-09-07T07:10:58;20.40;83.60
1786;DHT22;890;48.158;11.540;2023-09-07T07:13:23;20.50;83.80
1786;DHT22;890;48.158;11.540;2023-09-07T07:15:49;20.50;83.40
1786;DHT22;890;48.158;11.540;2023-09-07T07:18:14;20.50;83.20
1786;DHT22;890;48.158;11.540;2023-09-07T07:20:41;20.60;83.20
1786;DHT22;890;48.158;11.540;2023-09-07T07:23:07;20.60;82.90
1786;DHT22;890;48.158;11.540;2023-09-07T07:25:33;20.60;82.80
1786;DHT22;890;48.158;11.540;2023-09-07T07:28:03;20.60;83.20
1786;DHT22;890;48.158;11.540;2023-09-07T07:30:31;20.60;82.90
1786;DHT22;890;48.158;11.540;2023-09-07T07:32:57;20.70;83.00
1786;DHT22;890;48.158;11.540;2023-09-07T07:35:23;20.80;82.80
1786;DHT22;890;48.158;11.540;2023-09-07T07:37:50;20.90;82.50
1786;DHT22;890;48.158;11.540;2023-09-07T07:40:16;21.00;82.20
1786;DHT22;890;48.158;11.540;2023-09-07T07:42:43;21.20;82.00
1786;DHT22;890;48.158;11.540;2023-09-07T07:45:09;21.10;81.60
1786;DHT22;890;48.158;11.540;2023-09-07T07:47:35;21.10;81.60
1786;DHT22;890;48.158;11.540;2023-09-07T07:50:00;21.20;81.60
1786;DHT22;890;48.158;11.540;2023-09-07T07:52:26;21.20;81.40
1786;DHT22;890;48.158;11.540;2023-09-07T07:54:52;21.20;81.50
1786;DHT22;890;48.158;11.540;2023-09-07T07:57:18;21.30;81.40
1786;DHT22;890;48.158;11.540;2023-09-07T07:59:44;21.40;81.30
1786;DHT22;890;48.158;11.540;2023-09-07T08:02:09;21.40;80.90
1786;DHT22;890;48.158;11.540;2023-09-07T08:04:35;21.40;80.60
1786;DHT22;890;48.158;11.540;2023-09-07T08:07:01;21.40;80.70
1786;DHT22;890;48.158;11.540;2023-09-07T08:09:30;21.50;80.60
1786;DHT22;890;48.158;11.540;2023-09-07T08:11:55;21.60;80.50
1786;DHT22;890;48.158;11.540;2023-09-07T08:14:23;21.70;80.30
1786;DHT22;890;48.158;11.540;2023-09-07T08:16:49;21.80;80.00
1786;DHT22;890;48.158;11.540;2023-09-07T08:19:15;21.90;79.80
1786;DHT22;890;48.158;11.540;2023-09-07T08:21:40;22.00;79.70
1786;DHT22;890;48.158;11.540;2023-09-07T08:24:08;22.00;79.20
1786;DHT22;890;48.158;11.540;2023-09-07T08:26:35;22.00;79.10
1786;DHT22;890;48.158;11.540;2023-09-07T08:29:00;22.00;79.20
1786;DHT22;890;48.158;11.540;2023-09-07T08:31:34;22.00;78.80
1786;DHT22;890;48.158;11.540;2023-09-07T08:34:07;22.10;79.20
1786;DHT22;890;48.158;11.540;2023-09-07T08:36:34;22.20;79.00
1786;DHT22;890;48.158;11.540;2023-09-07T08:39:01;22.30;78.70
1786;DHT22;890;48.158;11.540;2023-09-07T08:41:32;22.30;78.60
1786;DHT22;890;48.158;11.540;2023-09-07T08:43:58;22.50;78.60
1786;DHT22;890;48.158;11.540;2023-09-07T08:46:25;22.50;78.40
1786;DHT22;890;48.158;11.540;2023-09-07T08:48:51;22.50;78.40
1786;DHT22;890;48.158;11.540;2023-09-07T08:51:19;22.50;78.20
1786;DHT22;890;48.158;11.540;2023-09-07T08:53:45;22.50;77.90
1786;DHT22;890;48.158;11.540;2023-09-07T08:56:15;22.60;77.90
1786;DHT22;890;48.158;11.540;2023-09-07T08:58:41;22.70;77.70
1786;DHT22;890;48.158;11.540;2023-09-07T09:01:07;22.90;77.40
1786;DHT22;890;48.158;11.540;2023-09-07T09:03:38;23.10;77.20
1786;DHT22;890;48.158;11.540;2023-09-07T09:06:04;23.10;77.10
1786;DHT22;890;48.158;11.540;2023-09-07T09:08:44;23.20;76.10
1786;DHT22;890;48.158;11.540;2023-09-07T09:11:10;23.40;76.30
1786;DHT22;890;48.158;11.540;2023-09-07T09:13:36;23.50;75.90
1786;DHT22;890;48.158;11.540;2023-09-07T09:16:02;23.90;79.50
1786;DHT22;890;48.158;11.540;2023-09-07T09:18:28;24.90;90.00
1786;DHT22;890;48.158;11.540;2023-09-07T09:20:55;26.50;91.20
1786;DHT22;890;48.158;11.540;2023-09-07T09:23:21;28.10;89.30
1786;DHT22;890;48.158;11.540;2023-09-07T09:25:48;29.70;83.70
1786;DHT22;890;48.158;11.540;2023-09-07T09:28:14;30.90;79.30
1786;DHT22;890;48.158;11.540;2023-09-07T09:30:41;32.20;75.30
1786;DHT22;890;48.158;11.540;2023-09-07T09:33:09;33.20;69.20
1786;DHT22;890;48.158;11.540;2023-09-07T09:35:36;33.90;63.00
1786;DHT22;890;48.158;11.540;2023-09-07T09:38:02;34.20;60.70
1786;DHT22;890;48.158;11.540;2023-09-07T09:40:32;34.60;58.60
1786;DHT22;890;48.158;11.540;2023-09-07T09:43:01;34.70;56.90
1786;DHT22;890;48.158;11.540;2023-09-07T09:45:28;35.00;54.70
1786;DHT22;890;48.158;11.540;2023-09-07T09:47:54;35.10;53.60
1786;DHT22;890;48.158;11.540;2023-09-07T09:50:24;35.10;53.40
1786;DHT22;890;48.158;11.540;2023-09-07T09:52:52;35.30;54.20
1786;DHT22;890;48.158;11.540;2023-09-07T09:55:18;35.70;53.10
1786;DHT22;890;48.158;11.540;2023-09-07T09:57:44;35.70;52.20
1786;DHT22;890;48.158;11.540;2023-09-07T10:00:10;35.90;50.80
1786;DHT22;890;48.158;11.540;2023-09-07T10:02:51;35.80;49.70
1786;DHT22;890;48.158;11.540;2023-09-07T10:05:20;35.90;49.00
1786;DHT22;890;48.158;11.540;2023-09-07T10:07:48;36.40;48.80
1786;DHT22;890;48.158;11.540;2023-09-07T10:10:18;36.70;48.10
1786;DHT22;890;48.158;11.540;2023-09-07T10:12:45;37.00;46.90
1786;DHT22;890;48.158;11.540;2023-09-07T10:15:26;37.50;45.80
1786;DHT22;890;48.158;11.540;2023-09-07T10:18:12;37.50;44.50
1786;DHT22;890;48.158;11.540;2023-09-07T10:23:14;37.80;43.20
1786;DHT22;890;48.158;11.540;2023-09-07T10:25:40;37.90;43.20
1786;DHT22;890;48.158;11.540;2023-09-07T10:28:05;37.80;42.90
1786;DHT22;890;48.158;11.540;2023-09-07T10:30:42;37.80;42.80
1786;DHT22;890;48.158;11.540;2023-09-07T10:33:18;38.10;42.50
1786;DHT22;890;48.158;11.540;2023-09-07T10:35:43;38.30;41.60
1786;DHT22;890;48.158;11.540;2023-09-07T10:38:13;38.50;41.00
1786;DHT22;890;48.158;11.540;2023-09-07T10:40:39;38.50;40.50
1786;DHT22;890;48.158;11.540;2023-09-07T10:43:05;38.60;40.70
1786;DHT22;890;48.158;11.540;2023-09-07T10:45:30;38.30;40.40
1786;DHT22;890;48.158;11.540;2023-09-07T10:47:56;38.30;40.20
1786;DHT22;890;48.158;11.540;2023-09-07T10:50:22;38.40;40.30
1786;DHT22;890;48.158;11.540;2023-09-07T10:52:47;38.40;39.90
1786;DHT22;890;48.158;11.540;2023-09-07T10:55:13;38.40;39.70
1786;DHT22;890;48.158;11.540;2023-09-07T10:57:45;38.50;39.70
1786;DHT22;890;48.158;11.540;2023-09-07T11:00:13;38.20;39.20
1786;DHT22;890;48.158;11.540;2023-09-07T11:02:41;38.30;39.20
1786;DHT22;890;48.158;11.540;2023-09-07T11:05:07;38.30;39.20
1786;DHT22;890;48.158;11.540;2023-09-07T11:07:34;38.20;39.80
1786;DHT22;890;48.158;11.540;2023-09-07T11:10:00;38.30;39.40
1786;DHT22;890;48.158;11.540;2023-09-07T11:12:25;38.40;39.10
1786;DHT22;890;48.158;11.540;2023-09-07T11:14:51;37.80;39.10
1786;DHT22;890;48.158;11.540;2023-09-07T11:17:18;37.90;39.50
1786;DHT22;890;48.158;11.540;2023-09-07T11:19:44;37.90;39.40
1786;DHT22;890;48.158;11.540;2023-09-07T11:22:10;38.00;39.30
1786;DHT22;890;48.158;11.540;2023-09-07T11:24:36;38.20;39.10
1786;DHT22;890;48.158;11.540;2023-09-07T11:27:02;38.40;38.60
1786;DHT22;890;48.158;11.540;2023-09-07T11:29:33;38.50;38.30
1786;DHT22;890;48.158;11.540;2023-09-07T11:32:11;38.50;38.00
1786;DHT22;890;48.158;11.540;2023-09-07T11:34:52;38.60;37.80
1786;DHT22;890;48.158;11.540;2023-09-07T11:37:25;38.60;37.10
1786;DHT22;890;48.158;11.540;2023-09-07T11:39:51;38.70;37.80
1786;DHT22;890;48.158;11.540;2023-09-07T11:42:16;38.90;37.60
1786;DHT22;890;48.158;11.540;2023-09-07T11:44:42;39.00;37.60
1786;DHT22;890;48.158;11.540;2023-09-07T11:47:07;39.20;37.70
1786;DHT22;890;48.158;11.540;2023-09-07T11:49:35;39.20;37.50
1786;DHT22;890;48.158;11.540;2023-09-07T11:52:00;39.00;37.20
1786;DHT22;890;48.158;11.540;2023-09-07T11:54:26;38.50;37.50
1786;DHT22;890;48.158;11.540;2023-09-07T11:56:52;38.20;38.30
1786;DHT22;890;48.158;11.540;2023-09-07T11:59:18;38.10;38.60
1786;DHT22;890;48.158;11.540;2023-09-07T12:01:44;38.30;38.30
1786;DHT22;890;48.158;11.540;2023-09-07T12:04:09;38.20;38.10
1786;DHT22;890;48.158;11.540;2023-09-07T12:06:36;37.80;38.20
1786;DHT22;890;48.158;11.540;2023-09-07T12:09:05;37.40;39.20
1786;DHT22;890;48.158;11.540;2023-09-07T12:11:37;36.90;38.20
1786;DHT22;890;48.158;11.540;2023-09-07T12:14:03;36.10;38.90
1786;DHT22;890;48.158;11.540;2023-09-07T12:16:29;35.30;39.70
1786;DHT22;890;48.158;11.540;2023-09-07T12:18:56;34.30;40.80
1786;DHT22;890;48.158;11.540;2023-09-07T12:21:21;33.40;42.20
1786;DHT22;890;48.158;11.540;2023-09-07T12:23:47;32.60;43.50
1786;DHT22;890;48.158;11.540;2023-09-07T12:26:13;31.80;44.70
1786;DHT22;890;48.158;11.540;2023-09-07T12:28:40;31.00;45.80
1786;DHT22;890;48.158;11.540;2023-09-07T12:31:05;30.40;47.00
1786;DHT22;890;48.158;11.540;2023-09-07T12:33:31;30.00;48.20
1786;DHT22;890;48.158;11.540;2023-09-07T12:35:58;29.70;48.60
1786;DHT22;890;48.158;11.540;2023-09-07T12:38:24;29.30;49.50
1786;DHT22;890;48.158;11.540;2023-09-07T12:40:54;29.00;50.30
1786;DHT22;890;48.158;11.540;2023-09-07T12:43:19;28.80;50.60
1786;DHT22;890;48.158;11.540;2023-09-07T12:45:48;28.70;51.10
1786;DHT22;890;48.158;11.540;2023-09-07T12:48:14;28.60;51.60
1786;DHT22;890;48.158;11.540;2023-09-07T12:50:39;28.40;51.70
1786;DHT22;890;48.158;11.540;2023-09-07T12:53:08;28.20;52.20
1786;DHT22;890;48.158;11.540;2023-09-07T12:55:34;28.00;52.70
1786;DHT22;890;48.158;11.540;2023-09-07T12:57:59;27.90;52.90
1786;DHT22;890;48.158;11.540;2023-09-07T13:00:26;27.70;53.10
1786;DHT22;890;48.158;11.540;2023-09-07T13:02:52;27.50;53.50
1786;DHT22;890;48.158;11.540;2023-09-07T13:05:18;27.50;53.70
1786;DHT22;890;48.158;11.540;2023-09-07T13:07:45;27.50;53.90
1786;DHT22;890;48.158;11.540;2023-09-07T13:10:11;27.40;53.90
1786;DHT22;890;48.158;11.540;2023-09-07T13:12:36;27.40;54.10
1786;DHT22;890;48.158;11.540;2023-09-07T13:15:03;27.20;53.80
1786;DHT22;890;48.158;11.540;2023-09-07T13:17:29;28.30;54.80
1786;DHT22;890;48.158;11.540;2023-09-07T13:19:54;27.30;54.30
1786;DHT22;890;48.158;11.540;2023-09-07T13:22:20;27.20;54.10
1786;DHT22;890;48.158;11.540;2023-09-07T13:24:45;27.20;54.30
1786;DHT22;890;48.158;11.540;2023-09-07T13:27:11;27.10;54.40
1786;DHT22;890;48.158;11.540;2023-09-07T13:29:36;27.10;54.30
1786;DHT22;890;48.158;11.540;2023-09-07T13:32:03;27.10;54.20
1786;DHT22;890;48.158;11.540;2023-09-07T13:34:29;27.10;53.90
1786;DHT22;890;48.158;11.540;2023-09-07T13:36:54;27.00;53.70
1786;DHT22;890;48.158;11.540;2023-09-07T13:39:21;27.00;53.60
1786;DHT22;890;48.158;11.540;2023-09-07T13:41:46;27.00;53.30
1786;DHT22;890;48.158;11.540;2023-09-07T13:44:14;27.00;53.10
1786;DHT22;890;48.158;11.540;2023-09-07T13:46:40;27.00;52.70
1786;DHT22;890;48.158;11.540;2023-09-07T13:49:05;27.00;52.70
1786;DHT22;890;48.158;11.540;2023-09-07T13:51:31;27.00;52.20
1786;DHT22;890;48.158;11.540;2023-09-07T13:54:03;27.00;52.20
1786;DHT22;890;48.158;11.540;2023-09-07T13:56:29;27.00;52.10
1786;DHT22;890;48.158;11.540;2023-09-07T13:58:54;27.00;51.80
1786;DHT22;890;48.158;11.540;2023-09-07T14:01:20;27.00;51.70
1786;DHT22;890;48.158;11.540;2023-09-07T14:03:46;27.00;51.80
1786;DHT22;890;48.158;11.540;2023-09-07T14:06:12;27.00;51.90
1786;DHT22;890;48.158;11.540;2023-09-07T14:08:37;26.90;51.70
1786;DHT22;890;48.158;11.540;2023-09-07T14:11:03;26.90;51.70
1786;DHT22;890;48.158;11.540;2023-09-07T14:13:28;26.90;51.90
1786;DHT22;890;48.158;11.540;2023-09-07T14:15:54;26.90;51.90
1786;DHT22;890;48.158;11.540;2023-09-07T14:18:20;26.80;52.10
1786;DHT22;890;48.158;11.540;2023-09-07T14:20:45;26.90;52.10
1786;DHT22;890;48.158;11.540;2023-09-07T14:23:11;26.80;51.70
1786;DHT22;890;48.158;11.540;2023-09-07T14:25:36;26.80;51.70
1786;DHT22;890;48.158;11.540;2023-09-07T14:28:03;26.80;51.90
1786;DHT22;890;48.158;11.540;2023-09-07T14:30:29;26.80;52.00
1786;DHT22;890;48.158;11.540;2023-09-07T14:32:54;26.80;52.00
1786;DHT22;890;48.158;11.540;2023-09-07T14:35:20;26.90;52.30
1786;DHT22;890;48.158;11.540;2023-09-07T14:37:45;26.90;52.40
1786;DHT22;890;48.158;11.540;2023-09-07T14:40:11;26.80;52.50
1786;DHT22;890;48.158;11.540;2023-09-07T14:42:41;26.80;52.60
1786;DHT22;890;48.158;11.540;2023-09-07T14:45:07;26.70;52.60
1786;DHT22;890;48.158;11.540;2023-09-07T14:47:32;26.80;52.70
1786;DHT22;890;48.158;11.540;2023-09-07T14:49:58;26.70;52.60
1786;DHT22;890;48.158;11.540;2023-09-07T14:52:23;26.80;52.70
1786;DHT22;890;48.158;11.540;2023-09-07T14:54:53;26.70;52.60
1786;DHT22;890;48.158;11.540;2023-09-07T14:57:18;26.70;52.90
1786;DHT22;890;48.158;11.540;2023-09-07T14:59:44;26.70;52.60
1786;DHT22;890;48.158;11.540;2023-09-07T15:02:09;26.70;52.40
1786;DHT22;890;48.158;11.540;2023-09-07T15:04:35;26.70;52.50
1786;DHT22;890;48.158;11.540;2023-09-07T15:07:01;26.60;52.60
1786;DHT22;890;48.158;11.540;2023-09-07T15:09:26;26.60;52.40
1786;DHT22;890;48.158;11.540;2023-09-07T15:11:53;26.60;52.60
1786;DHT22;890;48.158;11.540;2023-09-07T15:14:19;26.60;52.20
1786;DHT22;890;48.158;11.540;2023-09-07T15:16:45;26.70;52.20
1786;DHT22;890;48.158;11.540;2023-09-07T15:19:10;26.70;52.30
1786;DHT22;890;48.158;11.540;2023-09-07T15:21:36;26.50;52.20
1786;DHT22;890;48.158;11.540;2023-09-07T15:24:01;26.50;52.20
1786;DHT22;890;48.158;11.540;2023-09-07T15:26:27;26.50;52.20
1786;DHT22;890;48.158;11.540;2023-09-07T15:28:52;26.50;52.30
1786;DHT22;890;48.158;11.540;2023-09-07T15:31:18;26.40;52.20
1786;DHT22;890;48.158;11.540;2023-09-07T15:33:44;26.40;52.20
1786;DHT22;890;48.158;11.540;2023-09-07T15:36:09;26.40;52.10
1786;DHT22;890;48.158;11.540;2023-09-07T15:38:35;26.30;52.20
1786;DHT22;890;48.158;11.540;2023-09-07T15:41:00;26.30;52.20
1786;DHT22;890;48.158;11.540;2023-09-07T15:43:32;26.30;52.20
1786;DHT22;890;48.158;11.540;2023-09-07T15:45:58;26.30;51.70
1786;DHT22;890;48.158;11.540;2023-09-07T15:48:25;26.30;51.40
1786;DHT22;890;48.158;11.540;2023-09-07T15:50:51;26.30;50.90
1786;DHT22;890;48.158;11.540;2023-09-07T15:53:17;26.30;51.00
1786;DHT22;890;48.158;11.540;2023-09-07T15:55:42;26.20;51.10
1786;DHT22;890;48.158;11.540;2023-09-07T15:58:08;26.20;51.20
1786;DHT22;890;48.158;11.540;2023-09-07T16:00:33;26.30;51.20